createdAt,value
2022-09-30T00:00:34.791Z,72.92
2022-09-30T00:03:00.952Z,72.64
2022-09-30T00:05:27.075Z,72.25
2022-09-30T00:07:53.165Z,72.67
2022-09-30T00:10:19.341Z,71.99
2022-09-30T00:12:45.425Z,72.33
2022-09-30T00:15:11.513Z,72.72
2022-09-30T00:17:37.623Z,72.15
2022-09-30T00:20:03.720Z,72.60
2022-09-30T00:22:29.826Z,72.85
2022-09-30T00:24:55.952Z,72.91
2022-09-30T00:27:22.056Z,72.58
2022-09-30T00:29:48.170Z,73.20
2022-09-30T00:32:14.263Z,72.83
2022-09-30T00:34:40.347Z,73.05
2022-09-30T00:37:06.440Z,72.84
2022-09-30T00:39:32.569Z,72.91
2022-09-30T00:41:58.681Z,73.21
2022-09-30T00:44:24.801Z,73.46
2022-09-30T00:46:50.966Z,73.62
2022-09-30T00:49:17.091Z,73.78
2022-09-30T00:51:43.169Z,73.82
2022-09-30T00:54:09.313Z,73.14
2022-09-30T00:56:35.401Z,73.21
2022-09-30T00:59:01.495Z,73.70
2022-09-30T01:01:27.608Z,73.93
2022-09-30T01:03:53.701Z,73.46
2022-09-30T01:06:19.799Z,74.28
2022-09-30T01:08:45.896Z,73.81
2022-09-30T01:11:11.981Z,74.05
2022-09-30T01:13:38.064Z,73.60
2022-09-30T01:16:04.729Z,73.48
2022-09-30T01:18:30.817Z,73.46
2022-09-30T01:20:56.906Z,74.03
2022-09-30T01:23:23.025Z,73.48
2022-09-30T01:25:49.121Z,73.75
2022-09-30T01:28:15.212Z,73.74
2022-09-30T01:30:41.311Z,73.83
2022-09-30T01:33:07.418Z,73.52
2022-09-30T01:35:33.510Z,74.09
2022-09-30T01:37:59.605Z,74.30
2022-09-30T01:40:25.691Z,74.17
2022-09-30T01:42:51.770Z,74.53
2022-09-30T01:45:17.860Z,74.71
2022-09-30T01:47:43.948Z,74.58
2022-09-30T01:50:10.112Z,74.33
2022-09-30T01:52:36.215Z,74.65
2022-09-30T01:55:02.310Z,74.98
2022-09-30T01:57:28.392Z,74.39
2022-09-30T01:59:54.510Z,74.56
2022-09-30T02:02:20.654Z,74.79
2022-09-30T02:04:46.765Z,74.62
2022-09-30T02:07:12.882Z,74.56
2022-09-30T02:09:39.034Z,75.00
2022-09-30T02:12:05.168Z,74.63
2022-09-30T02:14:31.270Z,74.86
2022-09-30T02:16:57.368Z,74.61
2022-09-30T02:19:23.554Z,74.88
2022-09-30T02:21:49.705Z,74.52
2022-09-30T02:24:15.803Z,75.40
2022-09-30T02:26:41.917Z,74.83
2022-09-30T02:29:08.032Z,74.73
2022-09-30T02:31:34.149Z,74.60
2022-09-30T02:34:00.270Z,75.07
2022-09-30T02:36:26.375Z,74.63
2022-09-30T02:38:52.472Z,74.66
2022-09-30T02:41:18.548Z,74.82
2022-09-30T02:43:44.636Z,75.08
2022-09-30T02:46:10.777Z,75.24
2022-09-30T02:48:36.889Z,75.35
2022-09-30T02:51:03.018Z,74.83
2022-09-30T02:53:29.102Z,75.30
2022-09-30T02:55:55.180Z,74.66
2022-09-30T02:58:21.297Z,75.05
2022-09-30T03:00:47.414Z,75.40
2022-09-30T03:03:13.556Z,75.23
2022-09-30T03:05:39.664Z,74.83
2022-09-30T03:08:05.737Z,75.25
2022-09-30T03:10:31.823Z,75.07
2022-09-30T03:12:57.925Z,74.93
2022-09-30T03:15:24.026Z,75.02
2022-09-30T03:17:50.099Z,75.72
2022-09-30T03:20:16.729Z,75.43
2022-09-30T03:22:42.821Z,75.83
2022-09-30T03:25:08.905Z,75.20
2022-09-30T03:27:35.013Z,75.52
2022-09-30T03:30:01.126Z,75.37
2022-09-30T03:32:27.222Z,75.63
2022-09-30T03:34:53.336Z,75.77
2022-09-30T03:37:19.409Z,75.85
2022-09-30T03:39:45.491Z,75.34
2022-09-30T03:42:11.580Z,75.23
2022-09-30T03:44:37.697Z,75.64
2022-09-30T03:47:03.820Z,75.18
2022-09-30T03:49:29.986Z,75.51
2022-09-30T03:51:58.708Z,75.18
2022-09-30T03:54:24.991Z,75.29
2022-09-30T03:56:51.097Z,75.78
2022-09-30T03:59:17.186Z,75.81
2022-09-30T04:01:43.303Z,75.76
2022-09-30T04:04:09.477Z,75.88
2022-09-30T04:06:35.578Z,76.04
2022-09-30T04:09:01.740Z,75.95
2022-09-30T04:11:27.870Z,75.85
2022-09-30T04:13:53.963Z,75.84
2022-09-30T04:16:20.128Z,75.80
2022-09-30T04:18:46.359Z,76.04
2022-09-30T04:21:12.435Z,75.75
2022-09-30T04:23:38.516Z,75.77
2022-09-30T04:26:04.660Z,75.60
2022-09-30T04:28:30.760Z,75.75
2022-09-30T04:30:56.858Z,75.93
2022-09-30T04:33:22.982Z,75.59
2022-09-30T04:35:49.068Z,76.16
2022-09-30T04:38:15.157Z,76.43
2022-09-30T04:40:42.641Z,76.17
2022-09-30T04:43:08.765Z,76.51
2022-09-30T04:45:34.924Z,76.44
2022-09-30T04:48:01.089Z,76.57
2022-09-30T04:50:27.186Z,76.80
2022-09-30T04:52:53.290Z,76.77
2022-09-30T04:55:19.403Z,76.63
2022-09-30T04:57:45.513Z,76.41
2022-09-30T05:00:11.594Z,76.63
2022-09-30T05:02:37.700Z,76.72
2022-09-30T05:05:03.783Z,76.53
2022-09-30T05:07:29.875Z,76.84
2022-09-30T05:09:55.978Z,76.83
2022-09-30T05:12:22.083Z,76.63
2022-09-30T05:14:48.163Z,76.71
2022-09-30T05:17:14.285Z,76.46
2022-09-30T05:19:40.406Z,76.97
2022-09-30T05:22:06.513Z,77.18
2022-09-30T05:24:32.619Z,76.74
2022-09-30T05:26:58.721Z,76.81
2022-09-30T05:29:24.801Z,76.84
2022-09-30T05:31:50.953Z,76.99
2022-09-30T05:34:17.092Z,76.75
2022-09-30T05:36:43.186Z,77.08
2022-09-30T05:39:09.298Z,76.96
2022-09-30T05:41:35.403Z,77.10
2022-09-30T05:44:01.543Z,77.13
2022-09-30T05:46:27.687Z,77.21
2022-09-30T05:48:53.799Z,76.90
2022-09-30T05:51:19.884Z,76.84
2022-09-30T05:53:46.004Z,76.80
2022-09-30T05:56:12.089Z,77.02
2022-09-30T05:58:38.169Z,76.72
2022-09-30T06:01:10.669Z,76.77
2022-09-30T06:03:39.246Z,77.27
2022-09-30T06:06:05.372Z,77.13
2022-09-30T06:08:31.470Z,77.13
2022-09-30T06:10:57.569Z,77.21
2022-09-30T06:13:23.681Z,77.01
2022-09-30T06:15:50.126Z,76.99
2022-09-30T06:18:17.848Z,77.01
2022-09-30T06:20:44.128Z,77.35
2022-09-30T06:23:10.230Z,77.42
2022-09-30T06:25:36.316Z,77.00
2022-09-30T06:28:02.416Z,77.44
2022-09-30T06:30:32.875Z,77.31
2022-09-30T06:33:01.086Z,77.50
2022-09-30T06:35:27.679Z,77.47
2022-09-30T06:37:53.767Z,77.82
2022-09-30T06:40:19.875Z,77.73
2022-09-30T06:42:45.985Z,77.94
2022-09-30T06:45:21.080Z,77.61
2022-09-30T06:47:58.710Z,77.78
2022-09-30T06:50:26.124Z,77.75
2022-09-30T06:52:52.253Z,78.21
2022-09-30T06:55:18.343Z,78.04
2022-09-30T06:57:44.462Z,77.76
2022-09-30T07:00:10.574Z,77.73
2022-09-30T07:02:36.718Z,77.89
2022-09-30T07:05:02.876Z,78.14
2022-09-30T07:07:28.990Z,77.71
2022-09-30T07:09:59.435Z,77.93
2022-09-30T07:12:25.853Z,77.94
2022-09-30T07:14:51.968Z,78.22
2022-09-30T07:17:18.047Z,77.73
2022-09-30T07:19:44.144Z,78.37
2022-09-30T07:22:10.245Z,78.66
2022-09-30T07:24:36.333Z,78.83
2022-09-30T07:27:02.436Z,78.95
2022-09-30T07:29:36.639Z,78.74
2022-09-30T07:32:10.763Z,79.07
2022-09-30T07:34:36.909Z,78.63
2022-09-30T07:37:02.985Z,78.75
2022-09-30T07:39:29.064Z,78.67
2022-09-30T07:41:55.170Z,78.97
2022-09-30T07:44:21.285Z,78.89
2022-09-30T07:46:47.382Z,79.25
2022-09-30T07:49:13.541Z,78.86
2022-09-30T07:51:39.680Z,79.24
2022-09-30T07:54:05.786Z,79.40
2022-09-30T07:56:45.840Z,79.41
2022-09-30T07:59:18.029Z,79.19
2022-09-30T08:01:44.208Z,79.38
2022-09-30T08:04:10.298Z,79.92
2022-09-30T08:06:36.398Z,80.10
2022-09-30T08:09:02.710Z,79.69
2022-09-30T08:11:28.946Z,79.77
2022-09-30T08:13:55.295Z,80.10
2022-09-30T08:16:21.452Z,79.91
2022-09-30T08:18:47.550Z,80.15
2022-09-30T08:21:13.641Z,79.97
2022-09-30T08:23:39.757Z,79.90
2022-09-30T08:26:05.845Z,80.06
2022-09-30T08:28:31.946Z,80.41
2022-09-30T08:30:58.070Z,80.10
2022-09-30T08:33:24.149Z,79.98
2022-09-30T08:35:50.243Z,80.18
2022-09-30T08:38:16.361Z,80.01
2022-09-30T08:40:42.462Z,80.40
2022-09-30T08:43:08.562Z,80.59
2022-09-30T08:45:35.026Z,80.18
2022-09-30T08:48:01.157Z,80.24
2022-09-30T08:50:27.247Z,80.46
2022-09-30T08:52:53.371Z,80.40
2022-09-30T08:55:19.452Z,80.10
2022-09-30T08:57:47.589Z,80.33
2022-09-30T09:00:14.020Z,80.02
2022-09-30T09:02:40.204Z,80.52
2022-09-30T09:05:06.332Z,79.99
2022-09-30T09:07:32.440Z,80.15
2022-09-30T09:09:58.537Z,80.17
2022-09-30T09:12:24.630Z,80.07
2022-09-30T09:14:50.734Z,80.05
2022-09-30T09:17:16.870Z,80.05
2022-09-30T09:19:43.093Z,79.94
2022-09-30T09:22:09.214Z,79.69
2022-09-30T09:24:35.317Z,79.60
2022-09-30T09:27:01.419Z,79.20
2022-09-30T09:29:27.545Z,78.97
2022-09-30T09:31:53.711Z,78.70
2022-09-30T09:34:19.809Z,78.23
2022-09-30T09:36:46.493Z,77.86
2022-09-30T09:39:12.604Z,77.30
2022-09-30T09:41:38.691Z,76.50
2022-09-30T09:44:05.026Z,76.08
2022-09-30T09:46:31.116Z,75.49
2022-09-30T09:48:57.199Z,74.88
2022-09-30T09:51:23.315Z,74.40
2022-09-30T09:53:49.650Z,73.93
2022-09-30T09:56:15.986Z,73.52
2022-09-30T09:58:42.133Z,73.27
2022-09-30T10:01:09.569Z,72.99
2022-09-30T10:03:35.838Z,72.45
2022-09-30T10:06:01.958Z,71.54
2022-09-30T10:08:28.053Z,71.09
2022-09-30T10:10:54.132Z,70.84
2022-09-30T10:13:20.220Z,70.35
2022-09-30T10:15:46.383Z,69.64
2022-09-30T10:18:12.511Z,69.48
2022-09-30T10:20:38.677Z,68.83
2022-09-30T10:23:04.776Z,68.61
2022-09-30T10:25:30.903Z,67.98
2022-09-30T10:27:57.138Z,67.40
2022-09-30T10:30:23.291Z,67.48
2022-09-30T10:32:49.380Z,67.05
2022-09-30T10:35:15.477Z,66.53
2022-09-30T10:37:41.569Z,65.90
2022-09-30T10:40:07.659Z,65.61
2022-09-30T10:42:33.770Z,65.29
2022-09-30T10:44:59.865Z,64.47
2022-09-30T10:47:25.962Z,64.02
2022-09-30T10:49:52.071Z,64.00
2022-09-30T10:52:18.150Z,63.30
2022-09-30T10:54:44.275Z,63.20
2022-09-30T10:57:10.892Z,62.79
2022-09-30T10:59:36.985Z,62.60
2022-09-30T11:02:05.859Z,62.59
2022-09-30T11:04:32.316Z,61.97
2022-09-30T11:06:58.405Z,61.91
2022-09-30T11:09:24.506Z,61.00
2022-09-30T11:11:50.609Z,60.11
2022-09-30T11:14:16.698Z,59.83
2022-09-30T11:16:42.833Z,59.46
2022-09-30T11:19:08.973Z,59.17
2022-09-30T11:21:35.063Z,58.96
2022-09-30T11:24:01.175Z,58.64
2022-09-30T11:26:27.362Z,57.91
2022-09-30T11:28:53.538Z,58.03
2022-09-30T11:31:19.658Z,57.82
2022-09-30T11:33:45.796Z,57.68
2022-09-30T11:36:11.891Z,57.42
2022-09-30T11:38:37.985Z,56.89
2022-09-30T11:41:04.123Z,56.81
2022-09-30T11:43:30.282Z,56.78
2022-09-30T11:45:56.465Z,56.41
2022-09-30T11:48:22.671Z,56.17
2022-09-30T11:50:48.804Z,55.97
2022-09-30T11:53:14.884Z,55.39
2022-09-30T11:55:41.002Z,55.53
2022-09-30T11:58:28.553Z,55.07
2022-09-30T12:00:53.606Z,54.93
2022-09-30T12:03:19.759Z,54.72
2022-09-30T12:05:45.884Z,54.57
2022-09-30T12:08:11.995Z,54.37
2022-09-30T12:10:38.093Z,54.23
2022-09-30T12:13:04.171Z,53.97
2022-09-30T12:15:30.274Z,53.56
2022-09-30T12:17:56.366Z,52.72
2022-09-30T12:20:22.458Z,52.75
2022-09-30T12:22:48.544Z,52.48
2022-09-30T12:25:14.625Z,51.99
2022-09-30T12:27:40.716Z,51.81
2022-09-30T12:30:06.812Z,51.64
2022-09-30T12:32:32.930Z,51.32
2022-09-30T12:34:59.022Z,51.28
2022-09-30T12:37:25.164Z,51.26
2022-09-30T12:39:51.259Z,51.30
2022-09-30T12:42:17.343Z,51.17
2022-09-30T12:44:43.703Z,51.16
2022-09-30T12:47:09.800Z,51.13
2022-09-30T12:49:35.920Z,51.32
2022-09-30T12:52:03.571Z,51.16
2022-09-30T12:54:30.167Z,50.72
2022-09-30T12:56:56.303Z,50.61
2022-09-30T12:59:22.422Z,50.97
2022-09-30T13:01:48.513Z,50.92
2022-09-30T13:04:14.644Z,50.63
2022-09-30T13:06:41.246Z,50.78
2022-09-30T13:09:07.341Z,50.96
2022-09-30T13:11:33.441Z,51.29
2022-09-30T13:13:59.547Z,51.21
2022-09-30T13:16:29.714Z,50.56
2022-09-30T13:18:56.049Z,50.07
2022-09-30T13:21:22.159Z,49.95
2022-09-30T13:23:48.263Z,49.61
2022-09-30T13:26:14.351Z,49.08
2022-09-30T13:28:40.464Z,49.33
2022-09-30T13:31:06.555Z,49.36
2022-09-30T13:33:32.653Z,49.15
2022-09-30T13:35:58.775Z,49.01
2022-09-30T13:38:24.865Z,48.43
2022-09-30T13:41:01.839Z,48.40
2022-09-30T13:43:28.962Z,48.51
2022-09-30T13:45:55.099Z,48.42
2022-09-30T13:48:21.243Z,48.49
2022-09-30T13:50:47.377Z,48.74
2022-09-30T13:53:13.479Z,48.63
2022-09-30T13:55:39.582Z,48.44
2022-09-30T13:58:05.680Z,48.56
2022-09-30T14:00:31.781Z,48.50
2022-09-30T14:02:57.869Z,48.35
2022-09-30T14:05:23.983Z,48.21
2022-09-30T14:07:50.105Z,48.24
2022-09-30T14:10:16.183Z,48.01
2022-09-30T14:12:42.285Z,47.49
2022-09-30T14:15:08.412Z,47.51
2022-09-30T14:17:34.492Z,46.79
2022-09-30T14:20:00.609Z,47.02
2022-09-30T14:22:26.697Z,47.01
2022-09-30T14:24:52.768Z,47.20
2022-09-30T14:27:18.893Z,47.22
2022-09-30T14:29:44.973Z,46.98
2022-09-30T14:32:11.064Z,46.59
2022-09-30T14:34:37.165Z,46.52
2022-09-30T14:37:03.270Z,46.61
2022-09-30T14:39:29.365Z,46.19
2022-09-30T14:41:55.484Z,46.08
2022-09-30T14:44:21.568Z,46.17
2022-09-30T14:46:47.677Z,46.12
2022-09-30T14:49:14.319Z,46.06
2022-09-30T14:51:40.486Z,45.88
2022-09-30T14:54:06.606Z,45.82
2022-09-30T14:56:32.974Z,45.66
2022-09-30T14:58:59.329Z,45.33
2022-09-30T15:01:25.533Z,45.04
2022-09-30T15:03:51.772Z,44.94
2022-09-30T15:06:17.938Z,44.62
2022-09-30T15:08:44.217Z,44.70
2022-09-30T15:11:10.919Z,44.90
2022-09-30T15:13:37.163Z,44.67
2022-09-30T15:16:03.348Z,44.81
2022-09-30T15:18:29.598Z,44.60
2022-09-30T15:20:55.726Z,44.13
2022-09-30T15:23:21.812Z,43.68
2022-09-30T15:25:47.948Z,43.33
2022-09-30T15:28:14.159Z,42.27
2022-09-30T15:30:40.377Z,40.93
2022-09-30T15:33:06.630Z,39.92
2022-09-30T15:35:32.802Z,39.27
2022-09-30T15:37:58.984Z,38.66
2022-09-30T15:40:25.154Z,38.33
2022-09-30T15:42:51.314Z,38.13
2022-09-30T15:45:17.418Z,37.88
2022-09-30T15:47:43.743Z,37.58
2022-09-30T15:50:09.823Z,37.82
2022-09-30T15:52:35.904Z,37.99
2022-09-30T15:55:02.161Z,38.77
2022-09-30T15:57:28.284Z,39.60
2022-09-30T15:59:54.368Z,40.37
2022-09-30T16:02:20.520Z,41.05
2022-09-30T16:04:46.729Z,41.30
2022-09-30T16:07:12.908Z,41.00
2022-09-30T16:09:39.080Z,40.59
2022-09-30T16:12:05.278Z,40.30
2022-09-30T16:14:33.579Z,40.25
2022-09-30T16:16:59.853Z,40.54
2022-09-30T16:19:26.051Z,40.50
2022-09-30T16:21:52.363Z,40.60
2022-09-30T16:24:18.543Z,40.81
2022-09-30T16:26:44.660Z,41.01
2022-09-30T16:29:15.706Z,41.10
2022-09-30T16:31:43.838Z,41.20
2022-09-30T16:34:10.028Z,41.46
2022-09-30T16:36:36.132Z,41.79
2022-09-30T16:39:02.328Z,41.97
2022-09-30T16:41:28.472Z,42.34
2022-09-30T16:43:54.562Z,42.62
2022-09-30T16:46:20.783Z,42.78
2022-09-30T16:48:46.989Z,42.99
2022-09-30T16:51:13.137Z,43.43
2022-09-30T16:53:39.342Z,43.73
2022-09-30T16:56:05.449Z,44.17
2022-09-30T16:58:31.591Z,44.44
2022-09-30T17:00:57.772Z,44.63
2022-09-30T17:03:23.956Z,45.06
2022-09-30T17:05:50.062Z,45.36
2022-09-30T17:08:16.228Z,45.73
2022-09-30T17:10:42.321Z,46.10
2022-09-30T17:13:08.428Z,46.18
2022-09-30T17:15:34.545Z,46.78
2022-09-30T17:18:00.684Z,47.08
2022-09-30T17:20:26.795Z,47.41
2022-09-30T17:22:52.923Z,47.84
2022-09-30T17:25:19.009Z,48.15
2022-09-30T17:27:45.283Z,48.49
2022-09-30T17:30:12.791Z,48.67
2022-09-30T17:32:38.879Z,49.13
2022-09-30T17:35:04.981Z,49.12
2022-09-30T17:37:31.427Z,49.64
2022-09-30T17:39:58.617Z,49.92
2022-09-30T17:42:24.835Z,50.24
2022-09-30T17:44:50.977Z,50.44
2022-09-30T17:47:17.126Z,50.28
2022-09-30T17:49:43.262Z,50.80
2022-09-30T17:52:09.942Z,50.95
2022-09-30T17:54:36.075Z,50.97
2022-09-30T17:57:02.201Z,51.53
2022-09-30T17:59:28.315Z,51.46
2022-09-30T18:01:54.517Z,51.64
2022-09-30T18:04:20.680Z,51.88
2022-09-30T18:06:46.787Z,52.06
2022-09-30T18:09:12.861Z,52.55
2022-09-30T18:11:43.349Z,52.50
2022-09-30T18:14:10.321Z,52.63
2022-09-30T18:16:36.487Z,52.83
2022-09-30T18:19:02.684Z,53.10
2022-09-30T18:21:29.401Z,53.14
2022-09-30T18:23:55.849Z,53.51
2022-09-30T18:26:21.937Z,53.57
2022-09-30T18:28:48.051Z,53.60
2022-09-30T18:31:14.169Z,53.84
2022-09-30T18:33:40.319Z,54.17
2022-09-30T18:36:06.437Z,54.16
2022-09-30T18:38:32.538Z,54.26
2022-09-30T18:40:58.633Z,54.24
2022-09-30T18:43:24.741Z,54.25
2022-09-30T18:45:50.888Z,54.64
2022-09-30T18:48:17.027Z,54.38
2022-09-30T18:50:43.141Z,54.59
2022-09-30T18:53:10.158Z,54.17
2022-09-30T18:55:36.422Z,54.15
2022-09-30T18:58:03.436Z,54.42
2022-09-30T19:00:29.517Z,54.26
2022-09-30T19:02:55.624Z,54.39
2022-09-30T19:05:21.720Z,54.09
2022-09-30T19:07:47.794Z,54.18
2022-09-30T19:10:14.021Z,53.90
2022-09-30T19:12:40.198Z,53.94
2022-09-30T19:15:06.288Z,53.84
2022-09-30T19:17:32.424Z,53.87
2022-09-30T19:19:58.549Z,54.07
2022-09-30T19:22:24.655Z,54.10
2022-09-30T19:24:50.744Z,54.54
2022-09-30T19:27:17.344Z,54.63
2022-09-30T19:29:43.436Z,55.04
2022-09-30T19:32:09.543Z,55.28
2022-09-30T19:34:35.669Z,55.35
2022-09-30T19:37:01.776Z,55.97
2022-09-30T19:39:37.176Z,55.72
2022-09-30T19:42:08.013Z,55.58
2022-09-30T19:44:34.091Z,55.22
2022-09-30T19:47:00.227Z,55.43
2022-09-30T19:49:26.332Z,55.61
2022-09-30T19:51:52.411Z,55.66
2022-09-30T19:54:18.666Z,55.48
2022-09-30T19:56:45.035Z,55.74
2022-09-30T19:59:11.131Z,55.94
2022-09-30T20:01:37.981Z,56.06
2022-09-30T20:04:04.382Z,56.28
2022-09-30T20:06:30.461Z,56.42
2022-09-30T20:08:56.546Z,56.54
2022-09-30T20:11:22.659Z,56.78
2022-09-30T20:13:48.750Z,56.81
2022-09-30T20:16:14.875Z,56.85
2022-09-30T20:18:41.026Z,56.93
2022-09-30T20:21:07.116Z,57.13
2022-09-30T20:23:33.206Z,57.39
2022-09-30T20:25:59.301Z,57.14
2022-09-30T20:28:25.431Z,57.53
2022-09-30T20:30:51.579Z,57.45
2022-09-30T20:33:17.711Z,57.54
2022-09-30T20:35:43.785Z,57.88
2022-09-30T20:38:09.879Z,57.78
2022-09-30T20:40:35.993Z,57.76
2022-09-30T20:43:02.081Z,58.00
2022-09-30T20:45:28.285Z,57.94
2022-09-30T20:47:54.480Z,58.03
2022-09-30T20:50:20.577Z,57.83
2022-09-30T20:52:46.659Z,58.03
2022-09-30T20:55:12.779Z,58.17
2022-09-30T20:57:38.875Z,58.30
2022-09-30T21:00:05.309Z,58.26
2022-09-30T21:02:32.172Z,58.36
2022-09-30T21:04:58.678Z,58.45
2022-09-30T21:07:25.327Z,58.43
2022-09-30T21:09:51.512Z,58.55
2022-09-30T21:12:17.690Z,58.66
2022-09-30T21:14:43.799Z,58.86
2022-09-30T21:17:10.008Z,58.90
2022-09-30T21:19:36.258Z,58.94
2022-09-30T21:22:02.411Z,59.15
2022-09-30T21:24:28.691Z,59.38
2022-09-30T21:26:54.895Z,59.29
2022-09-30T21:29:21.048Z,59.48
2022-09-30T21:31:47.638Z,59.51
2022-09-30T21:34:13.826Z,59.75
2022-09-30T21:36:40.036Z,59.79
2022-09-30T21:39:06.259Z,59.41
2022-09-30T21:41:32.618Z,59.52
2022-09-30T21:43:59.201Z,59.81
2022-09-30T21:46:25.423Z,59.84
2022-09-30T21:48:51.589Z,60.05
2022-09-30T21:51:17.721Z,60.16
2022-09-30T21:53:43.840Z,60.23
2022-09-30T21:56:09.952Z,60.30
2022-09-30T21:58:36.077Z,60.59
2022-09-30T22:01:02.283Z,60.57
2022-09-30T22:03:28.414Z,60.82
2022-09-30T22:05:54.543Z,60.80
2022-09-30T22:08:21.056Z,61.01
2022-09-30T22:10:47.143Z,60.96
2022-09-30T22:13:13.283Z,61.05
2022-09-30T22:15:39.372Z,61.30
2022-09-30T22:18:09.235Z,61.25
2022-09-30T22:20:37.742Z,61.29
2022-09-30T22:23:03.888Z,61.29
2022-09-30T22:25:29.977Z,61.41
2022-09-30T22:27:56.137Z,61.57
2022-09-30T22:30:22.255Z,61.71
2022-09-30T22:32:48.345Z,61.57
2022-09-30T22:35:14.435Z,61.63
2022-09-30T22:37:40.600Z,61.69
2022-09-30T22:40:06.702Z,62.00
2022-09-30T22:42:32.790Z,62.03
2022-09-30T22:44:58.927Z,61.88
2022-09-30T22:47:25.050Z,61.86
2022-09-30T22:49:51.139Z,62.02
2022-09-30T22:52:17.234Z,61.81
2022-09-30T22:54:43.322Z,61.91
2022-09-30T22:57:09.410Z,61.90
2022-09-30T22:59:35.740Z,62.03
2022-09-30T23:02:01.868Z,62.29
2022-09-30T23:04:27.982Z,62.13
2022-09-30T23:06:54.083Z,62.05
2022-09-30T23:09:20.171Z,62.40
2022-09-30T23:11:46.279Z,61.98
2022-09-30T23:14:12.388Z,62.16
2022-09-30T23:16:38.670Z,62.32
2022-09-30T23:19:04.902Z,62.42
2022-09-30T23:21:31.580Z,62.44
2022-09-30T23:23:57.879Z,62.74
2022-09-30T23:26:23.974Z,62.79
2022-09-30T23:28:50.093Z,62.89
2022-09-30T23:31:16.285Z,63.02
2022-09-30T23:33:42.414Z,63.16
2022-09-30T23:36:08.530Z,63.26
2022-09-30T23:38:34.612Z,63.05
2022-09-30T23:41:00.698Z,63.22
2022-09-30T23:43:26.807Z,63.20
2022-09-30T23:45:52.931Z,63.22
2022-09-30T23:48:19.079Z,63.11
2022-09-30T23:50:45.188Z,63.33
2022-09-30T23:53:11.293Z,63.36
2022-09-30T23:55:37.391Z,63.37
2022-09-30T23:58:03.517Z,63.47
